Time;durP1;ratioP1;P1;durP2;ratioP2;P2;SDS_P1;SDS_P2;PMS_P1;PMS_P2;Temp;Humidity;BMP_temperature;BMP_pressure;BME280_temperature;BME280_humidity;BME280_pressure;Samples;Min_cycle;Max_cycle;Signal;HPM_P1;HPM_P2
2022/11/16 00:01:04;;;;;;;8.73;7.00;;;10.30;99.90;;;;;;4994517;28;20041;-76
2022/11/16 00:03:31;;;;;;;12.43;7.65;;;10.30;99.90;;;;;;4988265;28;20038;-75
2022/11/16 00:05:58;;;;;;;8.13;7.00;;;10.30;99.90;;;;;;4996120;28;20053;-76
2022/11/16 00:08:24;;;;;;;8.13;7.20;;;10.30;99.90;;;;;;4994055;28;20053;-75
2022/11/16 00:10:49;;;;;;;9.50;7.65;;;10.30;99.90;;;;;;4979805;28;20407;-75
2022/11/16 00:13:15;;;;;;;10.13;7.75;;;10.30;99.90;;;;;;4996254;28;20045;-76
2022/11/16 00:15:41;;;;;;;11.70;7.68;;;10.30;99.90;;;;;;4996040;28;20045;-76
2022/11/16 00:18:06;;;;;;;9.73;7.70;;;10.30;99.90;;;;;;4994565;28;20120;-75
2022/11/16 00:20:32;;;;;;;10.63;7.53;;;10.30;99.90;;;;;;4994959;28;20044;-75
2022/11/16 00:22:57;;;;;;;10.25;7.97;;;10.30;99.90;;;;;;4993894;28;20129;-75
2022/11/16 00:25:23;;;;;;;9.68;7.60;;;10.40;99.90;;;;;;4978828;28;20048;-75
2022/11/16 00:27:48;;;;;;;12.02;8.68;;;10.30;99.90;;;;;;4995510;28;20056;-75
2022/11/16 00:30:14;;;;;;;10.30;8.32;;;10.30;99.90;;;;;;4994989;28;20076;-75
2022/11/16 00:32:39;;;;;;;11.55;8.63;;;10.30;99.90;;;;;;4993638;28;20134;-76
2022/11/16 00:35:06;;;;;;;11.98;8.73;;;10.40;99.90;;;;;;4994452;28;20698;-76
2022/11/16 00:37:31;;;;;;;10.98;8.88;;;10.40;99.90;;;;;;4995260;28;20034;-76
2022/11/16 00:39:57;;;;;;;10.95;8.73;;;10.40;99.90;;;;;;4995422;28;20124;-75
2022/11/16 00:42:22;;;;;;;11.02;8.48;;;10.40;99.90;;;;;;4995662;28;20080;-76
2022/11/16 00:44:48;;;;;;;11.57;9.40;;;10.30;99.90;;;;;;4995715;28;20411;-75
2022/11/16 00:47:13;;;;;;;14.65;9.02;;;10.40;99.90;;;;;;4979121;28;20084;-75
2022/11/16 00:49:39;;;;;;;11.55;9.00;;;10.40;99.90;;;;;;4993387;28;20129;-75
2022/11/16 00:52:04;;;;;;;12.70;8.80;;;10.40;99.90;;;;;;4995226;28;20062;-76
2022/11/16 00:54:30;;;;;;;13.95;9.07;;;10.40;99.90;;;;;;4994423;28;20407;-76
2022/11/16 00:56:55;;;;;;;11.68;8.38;;;10.40;99.90;;;;;;4995207;28;20495;-76
2022/11/16 00:59:21;;;;;;;11.57;8.95;;;10.40;99.90;;;;;;4994938;28;20045;-75
2022/11/16 01:01:46;;;;;;;12.00;9.40;;;10.40;99.90;;;;;;4993961;28;20136;-75
2022/11/16 01:04:12;;;;;;;11.73;9.32;;;10.40;99.90;;;;;;4978820;28;20046;-75
2022/11/16 01:06:37;;;;;;;14.55;9.85;;;10.40;99.90;;;;;;4994939;28;20513;-75
2022/11/16 01:09:03;;;;;;;12.45;9.52;;;10.40;99.90;;;;;;5011138;28;20042;-75
2022/11/16 01:14:13;;;;;;;15.23;9.68;;;10.40;99.90;;;;;;4993036;28;20046;-76
2022/11/16 01:16:39;;;;;;;12.57;9.43;;;10.40;99.90;;;;;;4994597;28;20025;-76
2022/11/16 01:19:05;;;;;;;14.73;9.35;;;10.40;99.90;;;;;;4992969;28;20125;-76
2022/11/16 01:21:30;;;;;;;11.93;9.57;;;10.40;99.90;;;;;;4994146;28;20041;-75
2022/11/16 01:23:56;;;;;;;13.27;9.35;;;10.40;99.90;;;;;;4992719;28;20107;-75
2022/11/16 01:26:22;;;;;;;13.32;10.27;;;10.40;99.90;;;;;;4994200;28;20068;-75
2022/11/16 01:28:47;;;;;;;13.15;8.48;;;10.40;99.90;;;;;;5011594;28;20041;-75
2022/11/16 01:31:13;;;;;;;11.07;9.35;;;10.40;99.90;;;;;;4993677;28;20041;-75
2022/11/16 01:33:39;;;;;;;13.90;10.15;;;10.40;99.90;;;;;;4994339;28;20034;-74
2022/11/16 01:36:13;;;;;;;12.13;9.27;;;10.40;99.90;;;;;;4991714;28;20562;-75
2022/11/16 01:38:41;;;;;;;13.93;10.13;;;10.50;99.90;;;;;;4994067;28;20056;-74
2022/11/16 01:41:07;;;;;;;12.65;9.57;;;10.50;99.90;;;;;;4994467;28;20530;-74
2022/11/16 01:43:56;;;;;;;12.50;9.68;;;10.50;99.90;;;;;;4994444;28;20050;-74
2022/11/16 01:46:22;;;;;;;14.45;9.73;;;10.50;99.90;;;;;;4993480;28;20544;-75
2022/11/16 01:48:58;;;;;;;14.57;9.48;;;10.50;99.90;;;;;;4993692;28;20088;-75
2022/11/16 01:51:25;;;;;;;12.77;8.90;;;10.50;99.90;;;;;;4982012;28;20041;-76
2022/11/16 01:53:50;;;;;;;12.20;9.32;;;10.50;99.90;;;;;;4992871;28;20041;-75
2022/11/16 01:56:16;;;;;;;15.05;9.55;;;10.50;99.90;;;;;;4993848;28;20037;-75
2022/11/16 01:58:42;;;;;;;11.93;9.25;;;10.50;99.90;;;;;;4993775;28;20124;-75
2022/11/16 02:01:07;;;;;;;12.55;9.00;;;10.50;99.90;;;;;;4994021;28;20038;-75
2022/11/16 02:03:36;;;;;;;10.43;8.82;;;10.50;99.90;;;;;;4992570;28;20125;-75
2022/11/16 02:06:27;;;;;;;11.45;8.93;;;10.50;99.90;;;;;;4993409;28;20186;-75
2022/11/16 02:12:47;;;;;;;11.85;8.70;;;10.50;99.90;;;;;;4990194;28;20129;-75
2022/11/16 02:15:25;;;;;;;12.80;8.13;;;10.50;99.90;;;;;;4983247;28;20041;-74
2022/11/16 02:18:02;;;;;;;10.95;8.38;;;10.50;99.90;;;;;;4993478;28;20037;-77
2022/11/16 02:20:53;;;;;;;10.13;7.85;;;10.50;99.90;;;;;;4992716;28;20180;-75
2022/11/16 02:23:44;;;;;;;9.65;7.95;;;10.50;99.90;;;;;;4994012;28;20095;-75
2022/11/16 02:26:47;;;;;;;12.02;8.05;;;10.50;99.90;;;;;;4992436;28;20403;-75
2022/11/16 02:29:21;;;;;;;11.05;7.63;;;10.50;99.90;;;;;;4991103;28;20038;-75
2022/11/16 02:32:16;;;;;;;9.77;7.45;;;10.50;99.90;;;;;;4991838;28;20038;-74
2022/11/16 02:34:53;;;;;;;10.68;7.45;;;10.50;99.90;;;;;;4993007;28;20034;-75
2022/11/16 02:37:21;;;;;;;13.68;8.38;;;10.50;99.90;;;;;;4992516;28;20042;-75
2022/11/16 02:39:53;;;;;;;10.60;7.55;;;10.60;99.90;;;;;;4994127;28;20423;-75
2022/11/16 02:42:24;;;;;;;8.90;7.57;;;10.50;99.90;;;;;;4996075;28;20050;-76
2022/11/16 02:44:53;;;;;;;9.45;7.72;;;10.60;99.90;;;;;;4997681;28;20096;-75
2022/11/16 02:47:23;;;;;;;13.32;8.98;;;10.50;99.90;;;;;;4997568;28;20065;-75
2022/11/16 02:50:01;;;;;;;10.52;7.53;;;10.50;99.90;;;;;;4996218;28;20042;-75
2022/11/16 02:52:28;;;;;;;10.18;7.93;;;10.50;99.90;;;;;;4996421;28;20048;-75
2022/11/16 02:54:53;;;;;;;9.32;7.63;;;10.50;99.90;;;;;;4997227;28;20137;-75
2022/11/16 02:57:37;;;;;;;12.18;8.18;;;10.50;99.90;;;;;;4996277;28;20477;-75
2022/11/16 03:00:05;;;;;;;9.73;7.50;;;10.60;99.90;;;;;;4994115;28;20439;-76
2022/11/16 03:02:51;;;;;;;10.10;7.72;;;10.50;99.90;;;;;;4997647;28;20046;-76
2022/11/16 03:05:30;;;;;;;11.07;7.65;;;10.60;99.90;;;;;;4996102;28;20073;-75
2022/11/16 03:08:24;;;;;;;11.85;8.05;;;10.60;99.90;;;;;;4994862;28;20562;-76
2022/11/16 03:13:40;;;;;;;10.38;7.65;;;10.50;99.90;;;;;;4996203;28;20042;-75
2022/11/16 03:16:12;;;;;;;11.20;7.63;;;10.60;99.90;;;;;;5013286;28;20050;-75
2022/11/16 03:18:39;;;;;;;10.55;7.63;;;10.60;99.90;;;;;;4996395;28;20077;-74
2022/11/16 03:21:11;;;;;;;11.00;7.45;;;10.60;99.90;;;;;;4995668;28;20249;-74
2022/11/16 03:23:37;;;;;;;10.57;7.80;;;10.50;99.90;;;;;;4984216;28;20041;-75
2022/11/16 03:26:07;;;;;;;11.13;7.28;;;10.50;99.90;;;;;;4995683;28;20034;-75
2022/11/16 03:28:41;;;;;;;11.35;7.78;;;10.60;99.90;;;;;;4994919;28;20046;-74
2022/11/16 03:31:13;;;;;;;10.80;7.40;;;10.50;99.90;;;;;;4997035;28;20124;-75
2022/11/16 03:33:44;;;;;;;11.60;7.85;;;10.50;99.90;;;;;;4995015;28;20073;-76
2022/11/16 03:36:22;;;;;;;9.73;7.55;;;10.50;99.90;;;;;;4996627;28;20065;-76
2022/11/16 03:38:51;;;;;;;10.60;8.23;;;10.50;99.90;;;;;;4993805;28;20038;-75
2022/11/16 03:41:19;;;;;;;9.75;7.72;;;10.50;99.90;;;;;;4996674;28;20607;-74
2022/11/16 03:43:47;;;;;;;13.70;8.57;;;10.50;99.90;;;;;;4995042;28;20084;-74
2022/11/16 03:46:15;;;;;;;12.85;8.60;;;10.60;99.90;;;;;;4994967;28;20119;-74
2022/11/16 03:48:41;;;;;;;12.27;8.40;;;10.60;99.90;;;;;;4995384;28;20042;-74
2022/11/16 03:51:08;;;;;;;12.18;8.43;;;10.50;99.90;;;;;;4996118;28;20069;-75
2022/11/16 03:53:34;;;;;;;12.90;8.55;;;10.50;99.90;;;;;;4996467;28;20087;-75
2022/11/16 03:56:00;;;;;;;12.02;8.45;;;10.50;99.90;;;;;;4996563;28;20034;-74
2022/11/16 03:58:25;;;;;;;13.25;8.90;;;10.50;99.90;;;;;;4995140;28;20095;-75
2022/11/16 04:00:51;;;;;;;12.82;8.90;;;10.50;99.90;;;;;;4995199;28;20037;-74
2022/11/16 04:03:17;;;;;;;13.38;9.32;;;10.50;99.90;;;;;;4996371;28;20041;-75
2022/11/16 04:25:14;;;;;;;13.95;8.77;;;10.50;99.90;;;;;;4994793;28;19921;-74
2022/11/16 04:37:47;;;;;;;11.82;9.07;;;10.50;99.90;;;;;;4999010;28;20412;-74
2022/11/16 04:38:38;;;;;;;;;;;10.50;99.90;;;;;;4995712;28;20719;-74
2022/11/16 04:41:04;;;;;;;10.02;8.05;;;10.40;99.90;;;;;;4994593;28;19917;-74
2022/11/16 04:43:29;;;;;;;13.25;9.50;;;10.50;99.90;;;;;;4994456;28;20092;-74
2022/11/16 04:48:39;;;;;;;11.52;9.40;;;10.40;99.90;;;;;;4994161;28;20424;-75
2022/11/16 04:51:05;;;;;;;11.73;9.48;;;10.50;99.90;;;;;;4994745;28;20030;-74
2022/11/16 04:53:30;;;;;;;11.07;9.00;;;10.40;99.90;;;;;;4995276;28;20037;-74
2022/11/16 04:55:56;;;;;;;12.27;9.32;;;10.40;99.90;;;;;;5012809;28;20499;-74
2022/11/16 04:58:21;;;;;;;11.52;8.95;;;10.50;99.90;;;;;;5011991;28;20033;-73
2022/11/16 05:00:47;;;;;;;11.93;9.15;;;10.50;99.90;;;;;;4993024;28;20033;-74
2022/11/16 05:03:12;;;;;;;12.90;9.20;;;10.50;99.90;;;;;;4994486;28;20049;-74
2022/11/16 05:05:38;;;;;;;23.67;9.55;;;10.50;99.90;;;;;;5012050;28;20132;-74
2022/11/16 05:08:03;;;;;;;11.90;9.25;;;10.50;99.90;;;;;;4994713;28;20046;-74
2022/11/16 05:10:29;;;;;;;11.98;9.82;;;10.50;99.90;;;;;;4979100;28;20037;-74
2022/11/16 05:12:54;;;;;;;13.35;9.77;;;10.50;99.90;;;;;;4994859;28;20072;-74
2022/11/16 05:15:20;;;;;;;11.48;9.93;;;10.50;99.90;;;;;;4995216;28;20505;-76
2022/11/16 05:17:46;;;;;;;14.13;9.77;;;10.50;99.90;;;;;;4994702;28;20034;-73
2022/11/16 05:22:56;;;;;;;;;;;10.50;99.90;;;;;;4994959;28;20057;-75
2022/11/16 05:25:22;;;;;;;11.45;9.95;;;10.50;99.90;;;;;;4993747;28;19925;-74
2022/11/16 05:27:47;;;;;;;13.38;10.18;;;10.50;99.90;;;;;;4994337;28;20435;-74
2022/11/16 05:30:13;;;;;;;13.65;9.63;;;10.50;99.90;;;;;;4993417;28;20080;-74
2022/11/16 05:32:39;;;;;;;12.70;10.05;;;10.40;99.90;;;;;;4994557;28;20192;-76
2022/11/16 05:35:04;;;;;;;12.18;9.90;;;10.50;99.90;;;;;;4993335;28;20046;-75
2022/11/16 05:37:30;;;;;;;11.95;10.10;;;10.40;99.90;;;;;;4993593;28;20026;-75
2022/11/16 05:39:55;;;;;;;14.43;10.15;;;10.50;99.90;;;;;;4993596;28;20049;-75
2022/11/16 05:42:21;;;;;;;11.85;9.75;;;10.40;99.90;;;;;;4993197;28;20037;-75
2022/11/16 05:44:47;;;;;;;12.93;10.15;;;10.40;99.90;;;;;;5012069;28;20042;-75
2022/11/16 05:47:13;;;;;;;13.65;10.75;;;10.50;99.90;;;;;;4994301;28;20493;-75
2022/11/16 05:49:38;;;;;;;11.35;9.52;;;10.50;99.90;;;;;;4993082;28;20038;-74
2022/11/16 05:52:04;;;;;;;13.48;10.30;;;10.50;99.90;;;;;;4993388;28;20522;-74
2022/11/16 05:54:30;;;;;;;14.60;10.27;;;10.50;99.90;;;;;;4993409;28;20038;-74
2022/11/16 05:56:56;;;;;;;12.75;10.27;;;10.50;99.90;;;;;;4993093;28;20050;-74
2022/11/16 05:59:22;;;;;;;12.88;9.80;;;10.50;99.90;;;;;;4996110;28;22092;-74
2022/11/16 06:01:49;;;;;;;13.07;10.00;;;10.50;99.90;;;;;;4992774;28;20176;-73
2022/11/16 06:04:15;;;;;;;12.55;10.32;;;10.50;99.90;;;;;;4992934;28;20057;-74
2022/11/16 06:06:41;;;;;;;11.93;9.52;;;10.40;99.90;;;;;;4992843;28;20034;-74
2022/11/16 06:09:08;;;;;;;12.88;9.93;;;10.50;99.90;;;;;;4991478;28;20492;-74
2022/11/16 06:11:33;;;;;;;11.93;9.85;;;10.40;99.90;;;;;;4988673;28;20038;-74
2022/11/16 06:13:59;;;;;;;14.25;10.75;;;10.50;99.90;;;;;;4991859;28;20042;-74
2022/11/16 06:16:24;;;;;;;14.38;10.95;;;10.50;99.90;;;;;;4993543;28;20038;-74
2022/11/16 06:18:50;;;;;;;15.05;11.43;;;10.50;99.90;;;;;;4993640;28;20048;-74
2022/11/16 06:21:18;;;;;;;14.57;11.10;;;10.40;99.90;;;;;;4993739;28;20123;-75
2022/11/16 06:23:43;;;;;;;13.30;11.18;;;10.50;99.90;;;;;;4993024;28;20077;-74
2022/11/16 06:26:09;;;;;;;16.20;11.77;;;10.50;99.90;;;;;;4993745;28;20121;-75
2022/11/16 06:28:35;;;;;;;15.02;11.85;;;10.50;99.90;;;;;;4991845;28;20038;-74
2022/11/16 06:31:01;;;;;;;14.82;11.70;;;10.50;99.90;;;;;;4992857;28;20037;-74
2022/11/16 06:33:27;;;;;;;15.20;12.82;;;10.50;99.90;;;;;;4991211;28;20036;-74
2022/11/16 06:35:52;;;;;;;15.18;12.23;;;10.50;99.90;;;;;;4989754;28;20041;-74
2022/11/16 06:38:18;;;;;;;15.50;12.40;;;10.50;99.90;;;;;;5009488;28;20042;-75
2022/11/16 06:40:45;;;;;;;17.45;11.93;;;10.50;99.90;;;;;;4992145;28;20038;-75
2022/11/16 06:43:11;;;;;;;18.02;12.18;;;10.50;99.90;;;;;;4991864;28;20046;-75
2022/11/16 06:45:37;;;;;;;17.80;12.70;;;10.50;99.90;;;;;;4993834;28;20064;-75
2022/11/16 06:48:03;;;;;;;16.80;12.70;;;10.50;99.90;;;;;;4990443;28;20048;-75
2022/11/16 06:50:28;;;;;;;15.35;11.45;;;10.50;99.90;;;;;;4992174;28;20042;-74
2022/11/16 06:52:54;;;;;;;12.98;11.27;;;10.50;99.90;;;;;;4992465;28;20041;-74
2022/11/16 06:55:19;;;;;;;16.30;11.75;;;10.50;99.90;;;;;;4992380;28;20088;-74
2022/11/16 06:57:45;;;;;;;15.88;11.27;;;10.50;99.90;;;;;;4992601;28;20231;-74
2022/11/16 07:00:11;;;;;;;14.18;11.10;;;10.50;99.90;;;;;;4993121;28;20033;-74
2022/11/16 07:02:38;;;;;;;16.05;11.77;;;10.50;99.90;;;;;;4993075;28;20034;-74
2022/11/16 07:05:04;;;;;;;15.10;11.32;;;10.50;99.90;;;;;;4993212;28;20068;-74
2022/11/16 07:07:30;;;;;;;14.00;10.88;;;10.40;99.90;;;;;;4992816;28;20038;-75
2022/11/16 07:09:55;;;;;;;13.75;10.60;;;10.40;99.90;;;;;;4992849;28;20407;-74
2022/11/16 07:12:21;;;;;;;13.18;10.38;;;10.40;99.90;;;;;;4976790;28;20061;-74
2022/11/16 07:14:46;;;;;;;11.93;9.23;;;10.40;99.90;;;;;;4977086;28;20463;-75
2022/11/16 07:17:12;;;;;;;12.65;9.20;;;10.40;99.90;;;;;;4992901;28;20040;-74
2022/11/16 07:19:38;;;;;;;10.70;8.82;;;10.50;99.90;;;;;;4992644;28;20193;-74
2022/11/16 07:22:05;;;;;;;10.98;8.90;;;10.50;99.90;;;;;;4992874;28;20052;-74
2022/11/16 07:24:30;;;;;;;10.35;8.38;;;10.40;99.90;;;;;;4982898;28;20097;-74
2022/11/16 07:26:56;;;;;;;12.02;9.50;;;10.40;99.90;;;;;;4975763;28;20459;-74
2022/11/16 07:29:23;;;;;;;13.65;10.10;;;10.40;99.90;;;;;;4975716;28;20038;-74
2022/11/16 07:31:48;;;;;;;13.55;9.48;;;10.40;99.90;;;;;;4975849;28;20038;-74
2022/11/16 07:34:14;;;;;;;14.30;9.88;;;10.40;99.90;;;;;;4975934;28;20038;-74
2022/11/16 07:36:39;;;;;;;11.57;9.23;;;10.40;99.90;;;;;;4976036;28;20465;-74
2022/11/16 07:39:08;;;;;;;11.57;9.27;;;10.40;99.90;;;;;;4975626;28;20089;-74
2022/11/16 07:41:33;;;;;;;12.93;8.93;;;10.40;99.90;;;;;;4976042;28;20404;-74
2022/11/16 07:44:00;;;;;;;10.02;8.93;;;10.40;99.90;;;;;;4975917;28;20053;-74
2022/11/16 07:46:26;;;;;;;11.55;8.75;;;10.40;99.90;;;;;;4975542;28;20049;-74
2022/11/16 07:48:51;;;;;;;11.43;9.45;;;10.40;99.90;;;;;;4991918;28;20077;-74
2022/11/16 07:51:18;;;;;;;10.00;8.20;;;10.40;99.90;;;;;;4976636;28;20066;-74
2022/11/16 07:53:44;;;;;;;10.80;8.85;;;10.40;99.90;;;;;;4959486;28;20038;-74
2022/11/16 07:56:10;;;;;;;10.50;8.75;;;10.40;99.90;;;;;;4975462;28;20042;-74
2022/11/16 07:58:37;;;;;;;11.00;9.10;;;10.40;99.90;;;;;;4975566;28;20427;-74
2022/11/16 08:01:10;;;;;;;11.05;9.40;;;10.40;99.90;;;;;;4991615;28;20057;-74
2022/11/16 08:03:37;;;;;;;12.98;8.65;;;10.40;99.90;;;;;;4991916;28;20117;-74
2022/11/16 08:06:05;;;;;;;12.43;9.20;;;10.40;99.90;;;;;;4975160;28;20122;-75
2022/11/16 08:08:31;;;;;;;12.65;9.88;;;10.30;99.90;;;;;;4993097;28;20050;-75
2022/11/16 08:11:05;;;;;;;11.52;9.65;;;10.40;99.90;;;;;;4969328;28;20034;-74
2022/11/16 08:13:33;;;;;;;13.70;10.10;;;10.30;99.90;;;;;;4995698;28;20046;-74
2022/11/16 08:16:04;;;;;;;11.40;9.60;;;10.40;99.90;;;;;;4979801;28;20049;-74
2022/11/16 08:18:30;;;;;;;11.35;9.57;;;10.40;99.90;;;;;;4995588;28;20042;-74
2022/11/16 08:20:58;;;;;;;10.35;8.38;;;10.30;99.90;;;;;;4995918;28;20527;-75
2022/11/16 08:23:24;;;;;;;10.45;8.27;;;10.40;99.90;;;;;;4979523;28;20050;-75
2022/11/16 08:25:49;;;;;;;10.27;8.07;;;10.40;99.90;;;;;;4996009;28;20506;-75
2022/11/16 08:28:15;;;;;;;9.65;8.18;;;10.30;99.90;;;;;;4995443;28;20147;-75
2022/11/16 08:30:41;;;;;;;10.20;8.30;;;10.40;99.90;;;;;;4995640;28;20037;-75
2022/11/16 08:33:10;;;;;;;11.77;9.13;;;10.40;99.90;;;;;;4994274;28;20078;-75
2022/11/16 08:35:35;;;;;;;12.80;9.07;;;10.40;99.90;;;;;;4991848;28;20046;-75
2022/11/16 08:38:01;;;;;;;11.32;8.90;;;10.30;99.90;;;;;;4994448;28;20407;-75
2022/11/16 08:40:27;;;;;;;10.50;8.65;;;10.40;99.90;;;;;;4979209;28;20120;-75
2022/11/16 08:42:55;;;;;;;10.07;8.43;;;10.40;99.90;;;;;;4995206;28;20558;-75
2022/11/16 08:45:24;;;;;;;13.85;8.68;;;10.40;99.90;;;;;;4989286;28;20180;-75
2022/11/16 08:47:51;;;;;;;11.57;8.38;;;10.40;99.90;;;;;;4995186;28;20113;-75
2022/11/16 08:50:17;;;;;;;11.60;8.77;;;10.40;99.90;;;;;;4995154;28;20113;-75
2022/11/16 08:52:43;;;;;;;13.15;9.27;;;10.40;99.90;;;;;;4979573;28;20184;-75
2022/11/16 08:55:09;;;;;;;11.30;8.73;;;10.40;99.90;;;;;;4989648;28;20045;-75
2022/11/16 08:57:35;;;;;;;11.70;8.82;;;10.40;99.90;;;;;;4994456;28;20034;-76
2022/11/16 09:00:01;;;;;;;10.98;9.35;;;10.40;99.90;;;;;;4995182;28;20041;-75
2022/11/16 09:02:26;;;;;;;11.35;9.70;;;10.50;99.90;;;;;;4995386;28;20041;-75
2022/11/16 09:04:52;;;;;;;13.32;10.10;;;10.50;99.90;;;;;;4995236;28;20466;-75
2022/11/16 09:07:19;;;;;;;13.38;10.35;;;10.50;99.90;;;;;;4995006;28;20038;-75
2022/11/16 09:09:44;;;;;;;13.60;10.65;;;10.50;99.90;;;;;;4994661;28;20046;-75
2022/11/16 09:12:10;;;;;;;12.70;10.43;;;10.60;99.90;;;;;;4994979;28;20034;-75
2022/11/16 09:14:35;;;;;;;16.08;11.73;;;10.60;99.90;;;;;;4995297;28;20403;-75
2022/11/16 09:17:01;;;;;;;15.63;12.02;;;10.60;99.90;;;;;;4995286;28;20042;-75
2022/11/16 09:19:27;;;;;;;15.32;12.23;;;10.60;99.90;;;;;;4992505;28;20042;-74
2022/11/16 09:21:52;;;;;;;15.73;12.88;;;10.70;99.90;;;;;;4994634;28;20045;-74
2022/11/16 09:24:18;;;;;;;15.75;12.60;;;10.70;99.90;;;;;;4991651;28;20124;-75
2022/11/16 09:26:43;;;;;;;16.83;13.23;;;10.80;99.90;;;;;;4994495;28;20120;-75
2022/11/16 09:29:13;;;;;;;16.13;12.95;;;10.80;99.90;;;;;;4989463;28;20110;-75
2022/11/16 09:31:39;;;;;;;19.27;12.48;;;10.80;99.90;;;;;;4994083;28;20037;-75
2022/11/16 09:34:05;;;;;;;16.92;12.55;;;10.90;99.90;;;;;;4993908;28;20084;-74
2022/11/16 09:36:31;;;;;;;16.20;12.38;;;10.90;99.90;;;;;;4994367;28;20058;-75
2022/11/16 09:38:57;;;;;;;16.33;12.52;;;10.90;99.90;;;;;;4993277;28;20077;-74
2022/11/16 09:41:46;;;;;;;13.57;11.00;;;10.90;99.90;;;;;;4993249;28;20038;-74
2022/11/16 09:44:40;;;;;;;13.98;10.90;;;10.90;99.90;;;;;;4973875;28;20439;-74
2022/11/16 09:47:16;;;;;;;13.18;10.68;;;10.90;99.90;;;;;;4993623;28;20038;-75
2022/11/16 09:49:49;;;;;;;12.98;10.35;;;10.90;99.90;;;;;;4988344;28;20078;-74
2022/11/16 09:52:38;;;;;;;13.77;10.45;;;10.90;99.90;;;;;;4992456;28;20092;-74
2022/11/16 09:55:19;;;;;;;13.85;10.30;;;11.00;99.90;;;;;;5005516;28;20045;-74
2022/11/16 09:57:46;;;;;;;11.98;9.95;;;11.00;99.90;;;;;;4992369;28;20615;-75
2022/11/16 10:00:17;;;;;;;12.45;9.75;;;11.10;99.90;;;;;;4982677;28;20096;-74
2022/11/16 10:03:13;;;;;;;15.00;10.05;;;11.10;99.90;;;;;;4989221;28;20049;-75
2022/11/16 10:06:04;;;;;;;10.95;9.55;;;11.20;99.90;;;;;;4989939;28;20038;-75
2022/11/16 10:08:39;;;;;;;12.30;9.75;;;11.20;99.90;;;;;;4986234;28;20092;-75
2022/11/16 10:11:25;;;;;;;12.23;9.40;;;11.20;99.90;;;;;;4992120;28;20042;-75
2022/11/16 10:14:13;;;;;;;13.55;9.80;;;11.20;99.90;;;;;;4987428;28;20079;-75
2022/11/16 10:16:49;;;;;;;11.60;9.20;;;11.30;99.90;;;;;;4970259;28;20053;-76
2022/11/16 10:19:48;;;;;;;13.20;10.15;;;11.40;99.90;;;;;;4993447;28;20069;-75
2022/11/16 10:22:30;;;;;;;13.05;10.38;;;11.50;99.90;;;;;;4983243;28;20453;-75
2022/11/16 10:25:06;;;;;;;14.38;10.63;;;11.50;99.90;;;;;;4978214;28;20049;-75
2022/11/16 10:28:09;;;;;;;14.07;10.70;;;11.50;99.90;;;;;;4991507;28;20041;-75
2022/11/16 10:30:47;;;;;;;14.13;11.30;;;11.50;99.90;;;;;;5002040;28;20447;-75
2022/11/16 10:33:17;;;;;;;16.33;11.55;;;11.50;99.90;;;;;;4992857;28;20081;-75
2022/11/16 10:35:48;;;;;;;18.15;10.88;;;11.50;99.90;;;;;;4992509;28;20116;-75
2022/11/16 10:38:16;;;;;;;14.18;11.13;;;11.50;99.90;;;;;;4991497;28;20658;-74
2022/11/16 10:40:45;;;;;;;17.98;11.93;;;11.50;99.90;;;;;;4991337;28;20049;-74
2022/11/16 10:43:14;;;;;;;15.45;10.95;;;11.60;99.90;;;;;;4988738;28;20113;-74
2022/11/16 10:46:23;;;;;;;14.05;11.13;;;11.50;99.90;;;;;;4991710;28;20038;-74
2022/11/16 10:49:12;;;;;;;14.07;10.43;;;11.50;99.90;;;;;;4905784;29;20229;-74
2022/11/16 10:51:38;;;;;;;16.45;10.38;;;11.50;99.90;;;;;;5002878;28;20038;-74
2022/11/16 10:54:14;;;;;;;15.48;10.88;;;11.60;99.90;;;;;;4992959;28;20048;-74
2022/11/16 10:56:44;;;;;;;15.25;9.93;;;11.70;99.90;;;;;;4990303;28;20092;-74
2022/11/16 10:59:11;;;;;;;13.43;9.90;;;11.80;99.90;;;;;;4992324;28;20045;-74
2022/11/16 11:01:45;;;;;;;13.10;9.45;;;11.80;99.90;;;;;;4989139;28;20037;-74
2022/11/16 11:04:16;;;;;;;;;;;11.80;99.90;;;;;;4996632;28;20667;-75
2022/11/16 11:06:43;;;;;;;15.60;9.57;;;11.70;99.90;;;;;;4995225;28;20029;-75
2022/11/16 11:09:25;;;;;;;15.20;9.90;;;11.80;99.90;;;;;;4997515;28;20034;-75
2022/11/16 11:15:01;;;;;;;14.23;8.27;;;11.80;99.90;;;;;;4985888;28;20045;-75
2022/11/16 11:17:29;;;;;;;12.23;7.78;;;11.90;99.90;;;;;;4995456;28;20100;-75
2022/11/16 11:20:07;;;;;;;15.18;8.40;;;11.90;99.90;;;;;;4995748;28;20037;-75
2022/11/16 11:22:40;;;;;;;13.75;8.13;;;11.80;99.90;;;;;;4994315;28;20046;-75
2022/11/16 11:25:28;;;;;;;12.38;7.47;;;11.80;99.90;;;;;;4976612;28;20125;-75
2022/11/16 11:28:25;;;;;;;10.05;7.13;;;11.70;99.90;;;;;;4992911;28;20046;-75
2022/11/16 11:31:08;;;;;;;13.27;7.45;;;11.60;99.90;;;;;;4990189;28;20078;-74
2022/11/16 11:33:42;;;;;;;11.68;6.88;;;11.60;99.90;;;;;;4993474;28;20034;-75
2022/11/16 11:36:20;;;;;;;11.93;7.07;;;11.60;99.90;;;;;;4996509;28;20038;-75
2022/11/16 11:39:27;;;;;;;12.43;7.15;;;11.60;99.90;;;;;;4979783;28;20053;-75
2022/11/16 11:42:11;;;;;;;17.52;7.80;;;11.70;99.90;;;;;;4996543;28;20060;-75
2022/11/16 11:44:49;;;;;;;16.73;7.38;;;11.70;99.90;;;;;;4996324;28;20469;-75
2022/11/16 11:47:39;;;;;;;12.90;7.22;;;11.80;99.90;;;;;;4996420;28;20050;-75
2022/11/16 11:50:12;;;;;;;11.23;6.28;;;11.90;99.90;;;;;;4977970;28;20049;-75
2022/11/16 11:52:45;;;;;;;14.80;6.53;;;12.10;99.90;;;;;;4995135;28;20065;-75
2022/11/16 11:55:16;;;;;;;11.70;6.53;;;12.20;99.90;;;;;;5013657;28;20101;-75
2022/11/16 11:57:45;;;;;;;11.57;6.22;;;12.20;99.90;;;;;;4996168;28;20125;-75
2022/11/16 12:00:14;;;;;;;9.98;5.97;;;12.30;99.90;;;;;;4991835;28;20045;-75
2022/11/16 12:02:51;;;;;;;9.85;5.35;;;12.50;99.90;;;;;;4995148;28;20038;-75
2022/11/16 12:05:42;;;;;;;9.95;5.45;;;12.60;99.90;;;;;;4992180;28;20042;-75
2022/11/16 12:08:38;;;;;;;8.02;4.93;;;12.70;99.90;;;;;;4991971;28;20161;-76
2022/11/16 12:11:40;;;;;;;10.90;4.70;;;12.90;99.90;;;;;;4992006;28;20046;-75
2022/11/16 12:14:48;;;;;;;9.52;4.22;;;13.10;99.90;;;;;;4992785;28;20045;-75
2022/11/16 12:17:25;;;;;;;11.23;3.70;;;13.20;99.90;;;;;;4995524;28;20069;-75
2022/11/16 12:20:28;;;;;;;8.52;3.88;;;13.30;99.90;;;;;;4979464;28;20042;-75
2022/11/16 12:23:16;;;;;;;9.38;3.35;;;13.40;99.90;;;;;;4994225;28;20491;-75
2022/11/16 12:25:51;;;;;;;8.65;3.30;;;13.30;99.90;;;;;;4993367;28;20092;-75
2022/11/16 12:28:38;;;;;;;6.45;3.20;;;13.30;99.90;;;;;;4995739;28;20074;-75
2022/11/16 12:31:33;;;;;;;6.68;3.30;;;13.30;99.90;;;;;;4994484;28;20030;-75
2022/11/16 12:34:26;;;;;;;8.43;2.88;;;13.10;99.90;;;;;;4991286;28;20108;-75
2022/11/16 12:37:19;;;;;;;7.25;3.15;;;12.90;99.90;;;;;;4993486;28;20056;-75
2022/11/16 12:40:13;;;;;;;7.03;2.92;;;12.90;99.90;;;;;;4994819;28;20128;-76
2022/11/16 12:43:09;;;;;;;6.88;2.60;;;12.80;99.90;;;;;;4994819;28;20046;-75
2022/11/16 12:45:51;;;;;;;5.38;2.40;;;12.80;99.90;;;;;;4993634;28;20100;-76
2022/11/16 12:48:22;;;;;;;8.00;2.50;;;12.90;99.90;;;;;;4979096;28;20054;-75
2022/11/16 12:51:10;;;;;;;6.85;2.58;;;13.00;99.90;;;;;;4992493;28;20493;-75
2022/11/16 12:54:22;;;;;;;7.93;2.80;;;13.00;99.90;;;;;;5002731;28;20426;-75
2022/11/16 12:56:53;;;;;;;6.78;2.50;;;13.10;99.90;;;;;;4993337;28;20144;-75
2022/11/16 12:59:56;;;;;;;4.95;2.25;;;13.00;99.90;;;;;;4997574;28;20052;-75
2022/11/16 13:02:50;;;;;;;4.97;2.47;;;13.00;99.90;;;;;;4993161;28;20046;-75
2022/11/16 13:05:40;;;;;;;5.93;2.55;;;12.90;99.90;;;;;;4994081;28;20052;-75
2022/11/16 13:08:36;;;;;;;9.82;2.60;;;12.80;99.90;;;;;;4987626;28;20137;-76
2022/11/16 13:11:17;;;;;;;7.18;2.63;;;12.60;99.90;;;;;;4991698;28;20388;-75
2022/11/16 13:13:44;;;;;;;5.30;2.20;;;12.50;99.90;;;;;;5002988;28;20046;-75
2022/11/16 13:16:14;;;;;;;7.35;2.47;;;12.40;99.90;;;;;;4989865;28;20045;-75
2022/11/16 13:18:41;;;;;;;6.47;2.53;;;12.40;99.90;;;;;;4989876;28;20042;-75
2022/11/16 13:21:27;;;;;;;7.78;2.58;;;12.30;99.90;;;;;;4992703;28;20062;-76
2022/11/16 13:23:52;;;;;;;7.10;2.20;;;12.20;99.90;;;;;;5006056;28;20630;-75
2022/11/16 13:26:34;;;;;;;9.05;2.53;;;12.20;99.90;;;;;;4992398;28;20132;-75
2022/11/16 13:29:32;;;;;;;9.80;2.35;;;12.10;99.90;;;;;;4995405;28;20407;-76
2022/11/16 13:32:07;;;;;;;7.70;2.70;;;12.10;99.90;;;;;;5008679;28;20061;-77
2022/11/16 13:34:36;;;;;;;8.20;2.42;;;12.00;99.90;;;;;;4990413;28;20038;-76
2022/11/16 13:37:37;;;;;;;6.68;2.22;;;12.00;99.90;;;;;;4993506;28;20052;-76
2022/11/16 13:40:03;;;;;;;6.65;2.03;;;12.00;99.90;;;;;;4981058;28;20050;-77
2022/11/16 13:42:31;;;;;;;8.20;2.30;;;11.90;99.90;;;;;;4994338;28;20496;-76
2022/11/16 13:45:12;;;;;;;6.63;2.08;;;11.90;99.90;;;;;;4994305;28;20052;-77
2022/11/16 13:47:37;;;;;;;8.63;1.98;;;11.90;99.90;;;;;;4994359;28;20112;-76